Time;durP1;ratioP1;P1;durP2;ratioP2;P2;SDS_P1;SDS_P2;PMS_P1;PMS_P2;Temp;Humidity;BMP_temperature;BMP_pressure;BME280_temperature;BME280_humidity;BME280_pressure;Samples;Min_cycle;Max_cycle;Signal;HPM_P1;HPM_P2
2022/07/15 00:00:13;;;;;;;184.52;143.20;;;;;;;27.18;45.10;100471.63;5051277;28;20029;-38
2022/07/15 00:02:39;;;;;;;175.73;135.82;;;;;;;27.19;45.59;100467.09;5049739;28;20112;-39
2022/07/15 00:05:06;;;;;;;167.30;132.63;;;;;;;27.21;45.41;100459.63;5032904;28;20596;-34
2022/07/15 00:07:32;;;;;;;186.85;149.10;;;;;;;27.20;45.72;100461.47;5051396;28;20108;-43
2022/07/15 00:10:16;;;;;;;170.07;137.98;;;;;;;27.20;45.56;100458.81;5049677;28;20033;-41
2022/07/15 00:12:45;;;;;;;184.13;148.73;;;;;;;27.20;45.35;100458.81;5050337;28;20481;-37
2022/07/15 00:15:12;;;;;;;178.73;144.77;;;;;;;27.22;45.74;100466.56;5071192;28;20485;-37
2022/07/15 00:17:38;;;;;;;177.18;144.10;;;;;;;27.22;45.42;100456.69;5071124;28;20427;-41
2022/07/15 00:20:05;;;;;;;196.35;158.82;;;;;;;27.23;45.48;100460.16;5056383;28;20112;-44
2022/07/15 00:22:31;;;;;;;195.35;160.40;;;;;;;27.23;45.53;100468.19;5050768;28;20052;-40
2022/07/15 00:24:57;;;;;;;213.90;169.38;;;;;;;27.22;45.75;100464.72;5032620;28;20025;-43
2022/07/15 00:27:23;;;;;;;218.27;178.30;;;;;;;27.23;45.44;100468.19;5062272;28;20400;-41
2022/07/15 00:29:48;;;;;;;199.05;166.30;;;;;;;27.20;45.74;100458.81;5053230;28;20040;-43
2022/07/15 00:32:14;;;;;;;187.27;153.63;;;;;;;27.17;45.51;100462.00;5050510;28;20021;-39
2022/07/15 00:34:39;;;;;;;148.55;121.88;;;;;;;27.17;45.23;100456.63;5050780;28;20130;-37
2022/07/15 00:37:05;;;;;;;117.07;95.80;;;;;;;27.15;45.04;100445.38;5051673;28;20557;-43
2022/07/15 00:39:31;;;;;;;106.53;84.13;;;;;;;27.14;44.65;100454.47;5069688;28;20443;-39
2022/07/15 00:41:56;;;;;;;84.82;65.30;;;;;;;27.11;44.50;100446.97;5070372;28;20159;-40
2022/07/15 00:44:22;;;;;;;51.00;40.38;;;;;;;27.10;44.50;100440.00;5068482;28;20041;-41
2022/07/15 00:46:48;;;;;;;39.08;31.52;;;;;;;27.09;44.79;100439.19;5070131;28;20028;-39
2022/07/15 00:49:14;;;;;;;35.92;29.27;;;;;;;27.08;44.57;100434.91;5070490;28;20516;-41
2022/07/15 00:51:45;;;;;;;44.20;36.40;;;;;;;27.08;44.35;100439.44;5070400;28;20078;-39
2022/07/15 00:54:15;;;;;;;39.60;29.17;;;;;;;27.09;44.87;100430.34;5062300;28;20029;-40
2022/07/15 00:56:52;;;;;;;38.08;31.67;;;;;;;27.10;44.69;100432.78;5050170;28;20159;-41
2022/07/15 00:59:19;;;;;;;25.45;21.02;;;;;;;27.12;44.34;100432.53;5056979;28;20037;-38
2022/07/15 01:01:45;;;;;;;23.98;19.30;;;;;;;27.13;44.50;100430.66;5069975;28;20111;-40
2022/07/15 01:04:12;;;;;;;25.25;18.63;;;;;;;27.14;44.74;100435.75;5067607;28;20085;-37
2022/07/15 01:06:39;;;;;;;18.48;14.60;;;;;;;27.14;44.75;100425.06;5066600;28;20036;-40
2022/07/15 01:09:04;;;;;;;16.88;13.45;;;;;;;27.16;44.71;100425.59;5069864;28;20045;-40
2022/07/15 01:11:30;;;;;;;18.67;12.85;;;;;;;27.16;44.71;100422.94;5069966;28;20031;-41
2022/07/15 01:13:58;;;;;;;16.80;12.68;;;;;;;27.17;44.65;100426.41;5067637;28;20420;-37
2022/07/15 01:16:24;;;;;;;15.00;10.43;;;;;;;27.17;44.87;100419.19;5069855;28;20123;-42
2022/07/15 01:18:50;;;;;;;8.95;8.05;;;;;;;27.19;44.99;100418.94;5069822;28;20032;-38
2022/07/15 01:21:15;;;;;;;8.77;7.78;;;;;;;27.18;44.99;100412.78;5069644;28;20480;-42
2022/07/15 01:23:42;;;;;;;7.70;6.90;;;;;;;27.17;45.08;100410.38;5069717;28;20054;-43
2022/07/15 01:26:10;;;;;;;7.95;6.78;;;;;;;27.17;44.85;100402.34;5031443;28;20029;-39
2022/07/15 01:28:36;;;;;;;6.47;5.40;;;;;;;27.15;44.98;100407.94;5048272;28;20060;-42
2022/07/15 01:31:01;;;;;;;5.43;4.68;;;;;;;27.13;44.79;100406.59;5049805;28;20079;-37
2022/07/15 01:33:27;;;;;;;4.53;3.63;;;;;;;27.12;44.84;100408.47;5049708;28;20056;-38
2022/07/15 01:35:55;;;;;;;3.10;2.40;;;;;;;27.11;44.93;100409.53;5030269;28;20103;-39
2022/07/15 01:38:20;;;;;;;3.17;2.30;;;;;;;27.11;44.83;100404.16;5049635;28;20040;-37
2022/07/15 01:40:46;;;;;;;3.38;1.90;;;;;;;27.10;44.94;100405.22;5049150;28;20044;-39
2022/07/15 01:43:12;;;;;;;2.47;1.10;;;;;;;27.09;44.71;100403.63;5051078;28;20290;-42
2022/07/15 01:45:37;;;;;;;1.38;0.77;;;;;;;27.07;44.39;100401.19;5051105;28;20507;-42
2022/07/15 01:48:03;;;;;;;1.13;0.90;;;;;;;27.05;44.02;100397.16;5069203;28;20438;-42
2022/07/15 01:50:28;;;;;;;1.98;0.77;;;;;;;27.05;43.89;100397.97;5060938;28;20060;-37
2022/07/15 01:52:54;;;;;;;2.42;1.20;;;;;;;27.05;44.12;100392.63;5048839;28;20029;-39
2022/07/15 01:55:20;;;;;;;2.38;1.00;;;;;;;27.06;44.11;100393.44;5048922;28;20068;-40
2022/07/15 01:57:45;;;;;;;2.92;1.10;;;;;;;27.07;43.88;100393.19;5048990;28;20028;-42
2022/07/15 02:00:12;;;;;;;1.20;0.80;;;;;;;27.06;44.11;100388.88;5065246;28;20102;-41
2022/07/15 02:02:38;;;;;;;1.30;0.60;;;;;;;27.07;44.10;100387.84;5050794;28;20139;-43
2022/07/15 02:05:04;;;;;;;1.00;0.50;;;;;;;27.07;43.79;100384.34;5068821;28;20054;-41
2022/07/15 02:07:30;;;;;;;2.33;0.50;;;;;;;27.06;43.92;100378.19;5068663;28;20028;-34
2022/07/15 02:09:55;;;;;;;0.90;0.50;;;;;;;27.07;43.55;100384.34;5054346;28;20028;-42
2022/07/15 02:12:21;;;;;;;2.15;0.57;;;;;;;27.07;43.70;100379.00;5048656;28;20029;-41
2022/07/15 02:14:46;;;;;;;1.02;0.30;;;;;;;27.07;43.38;100379.81;5060353;28;20123;-39
2022/07/15 02:17:12;;;;;;;0.57;0.30;;;;;;;27.08;43.42;100385.97;5068944;28;20376;-42
2022/07/15 02:19:37;;;;;;;1.30;0.32;;;;;;;27.06;43.29;100375.53;5044981;28;20029;-42
2022/07/15 02:22:03;;;;;;;1.38;0.43;;;;;;;27.04;43.29;100377.66;5048745;28;20456;-40
2022/07/15 02:24:29;;;;;;;3.35;0.30;;;;;;;27.04;43.09;100374.97;5048612;28;20090;-42
2022/07/15 02:26:54;;;;;;;1.77;0.30;;;;;;;27.00;42.86;100375.72;5048592;28;20526;-39
2022/07/15 02:29:20;;;;;;;1.58;0.30;;;;;;;26.99;43.18;100377.59;5047858;28;20029;-36
2022/07/15 02:31:45;;;;;;;1.65;0.30;;;;;;;26.98;43.34;100377.84;5048682;28;20434;-42
2022/07/15 02:34:11;;;;;;;0.50;0.30;;;;;;;26.96;43.05;100380.78;5048466;28;20044;-40
2022/07/15 02:36:37;;;;;;;0.55;0.30;;;;;;;26.95;43.09;100370.31;5048346;28;20024;-42
2022/07/15 02:39:03;;;;;;;2.92;0.30;;;;;;;26.91;43.26;100370.03;5046982;28;20428;-38
2022/07/15 02:41:29;;;;;;;0.73;0.20;;;;;;;26.86;43.53;100361.97;5230183;22;20071;-72
2022/07/15 02:43:55;;;;;;;1.30;0.25;;;;;;;26.83;43.48;100367.03;5046026;28;20049;-72
2022/07/15 02:46:21;;;;;;;0.90;0.30;;;;;;;26.81;43.22;100372.63;5047996;28;20427;-72
2022/07/15 02:48:47;;;;;;;1.27;0.30;;;;;;;26.82;43.27;100362.72;5048237;28;20101;-72
2022/07/15 02:51:13;;;;;;;0.60;0.30;;;;;;;26.83;42.98;100367.03;5048324;28;20391;-72
2022/07/15 02:53:38;;;;;;;1.45;0.30;;;;;;;26.84;43.16;100357.94;5048383;28;20536;-72
2022/07/15 02:56:05;;;;;;;0.80;0.22;;;;;;;26.84;43.20;100361.41;5048272;28;20135;-73
2022/07/15 02:58:31;;;;;;;1.10;0.20;;;;;;;26.86;43.03;100351.28;5048383;28;20035;-72
2022/07/15 03:00:57;;;;;;;0.57;0.30;;;;;;;26.86;42.95;100355.81;5048001;28;20109;-72
2022/07/15 03:03:23;;;;;;;1.05;0.30;;;;;;;26.86;43.08;100361.97;5051070;28;20032;-72
2022/07/15 03:05:49;;;;;;;0.75;0.32;;;;;;;26.86;42.83;100355.81;5052754;28;20025;-73
2022/07/15 03:08:16;;;;;;;0.68;0.30;;;;;;;26.87;42.65;100363.59;5052271;28;20090;-72
2022/07/15 03:10:42;;;;;;;0.52;0.20;;;;;;;26.87;42.53;100362.78;5052374;28;20055;-72
2022/07/15 03:13:08;;;;;;;0.35;0.20;;;;;;;26.86;42.48;100367.31;5052291;28;20497;-73
2022/07/15 03:15:33;;;;;;;0.68;0.35;;;;;;;26.85;42.71;100359.56;5051966;28;20096;-71
2022/07/15 03:17:59;;;;;;;1.10;0.30;;;;;;;26.83;42.69;100357.13;5052135;28;20354;-72
2022/07/15 03:20:24;;;;;;;1.33;0.20;;;;;;;26.82;42.41;100358.19;5052278;28;20082;-72
2022/07/15 03:22:50;;;;;;;1.02;0.20;;;;;;;26.82;42.92;100360.06;5052106;28;20120;-73
2022/07/15 03:25:15;;;;;;;1.08;0.30;;;;;;;26.81;42.57;100359.25;5052147;28;20041;-73
2022/07/15 03:27:40;;;;;;;2.67;0.45;;;;;;;26.81;42.78;100359.25;5052120;28;20039;-73
2022/07/15 03:30:06;;;;;;;0.70;0.20;;;;;;;26.82;42.68;100357.38;5052047;28;20035;-72
2022/07/15 03:32:32;;;;;;;0.82;0.35;;;;;;;26.83;42.67;100356.31;5052096;28;20029;-72
2022/07/15 03:34:58;;;;;;;1.23;0.30;;;;;;;26.82;42.84;100360.88;5051533;28;20075;-72
2022/07/15 03:37:24;;;;;;;1.83;0.30;;;;;;;26.82;42.75;100360.06;5052009;28;20424;-72
2022/07/15 03:39:49;;;;;;;0.50;0.20;;;;;;;26.82;42.61;100357.38;5051545;28;20025;-72
2022/07/15 03:42:14;;;;;;;0.70;0.20;;;;;;;26.83;42.70;100367.03;5051472;28;20099;-72
2022/07/15 03:44:40;;;;;;;1.45;0.22;;;;;;;26.82;42.87;100354.72;5051715;28;20029;-72
2022/07/15 03:47:05;;;;;;;0.68;0.30;;;;;;;26.82;42.78;100360.88;5052020;28;20055;-73
2022/07/15 03:49:31;;;;;;;2.55;0.30;;;;;;;26.80;42.64;100356.84;5051358;28;20033;-72
2022/07/15 03:51:56;;;;;;;1.80;0.30;;;;;;;26.80;42.71;100351.50;5051286;28;20025;-72
2022/07/15 03:54:22;;;;;;;2.13;0.28;;;;;;;26.79;42.41;100353.34;5051523;28;20112;-73
2022/07/15 03:56:47;;;;;;;1.55;0.20;;;;;;;26.76;42.81;100352.00;5051545;28;20068;-72
2022/07/15 03:59:14;;;;;;;1.05;0.20;;;;;;;26.74;42.67;100354.13;5051093;28;20036;-72
2022/07/15 04:01:40;;;;;;;1.15;0.30;;;;;;;26.72;42.72;100355.44;5051144;28;20162;-72
2022/07/15 04:04:06;;;;;;;1.00;0.20;;;;;;;26.70;42.91;100354.88;5051516;28;20124;-72
2022/07/15 04:06:32;;;;;;;1.75;0.20;;;;;;;26.67;42.78;100358.03;5051291;28;20303;-72
2022/07/15 04:08:58;;;;;;;0.93;0.30;;;;;;;26.66;43.07;100361.78;5051232;28;20029;-72
2022/07/15 04:11:24;;;;;;;0.52;0.20;;;;;;;26.64;43.04;100362.03;5033142;28;20075;-72
2022/07/15 04:13:50;;;;;;;0.93;0.30;;;;;;;26.66;42.98;100359.09;5049822;28;20025;-72
2022/07/15 04:16:15;;;;;;;0.50;0.20;;;;;;;26.66;43.19;100365.25;5050776;28;20400;-72
2022/07/15 04:18:41;;;;;;;1.15;0.38;;;;;;;26.65;43.02;100355.63;5051122;28;20029;-72
2022/07/15 04:21:07;;;;;;;1.40;0.40;;;;;;;26.64;42.95;100354.00;5050802;28;20025;-71
2022/07/15 04:23:32;;;;;;;1.98;0.20;;;;;;;26.63;42.92;100351.59;5050643;28;20485;-72
2022/07/15 04:25:58;;;;;;;2.92;0.40;;;;;;;26.62;43.00;100356.13;5051045;28;20036;-72
2022/07/15 04:28:24;;;;;;;0.75;0.22;;;;;;;26.60;43.04;100346.75;5050463;28;20031;-72
2022/07/15 04:30:51;;;;;;;2.50;0.30;;;;;;;26.55;43.08;100350.19;5050587;28;20033;-72
2022/07/15 04:33:16;;;;;;;1.33;0.30;;;;;;;26.50;43.37;100350.13;5050685;28;20035;-72
2022/07/15 04:35:42;;;;;;;5.90;0.20;;;;;;;26.52;43.35;100350.69;5032724;28;20037;-72
2022/07/15 04:38:08;;;;;;;1.98;0.20;;;;;;;26.56;43.33;100359.00;5050659;28;20546;-72
2022/07/15 04:40:34;;;;;;;1.33;0.30;;;;;;;26.59;43.49;100359.31;5051080;28;20059;-72
2022/07/15 04:43:00;;;;;;;0.50;0.20;;;;;;;26.61;43.11;100359.84;5032159;28;20566;-72
2022/07/15 04:45:27;;;;;;;0.63;0.20;;;;;;;26.65;43.49;100358.31;5050293;28;20104;-71
2022/07/15 04:47:52;;;;;;;0.50;0.20;;;;;;;26.68;43.21;100352.44;5050307;28;20025;-72
2022/07/15 04:53:02;;;;;;;0.95;0.22;;;;;;;26.66;43.48;100343.06;5050820;28;20048;-72
2022/07/15 04:55:27;;;;;;;2.22;0.30;;;;;;;26.67;43.67;100350.84;5050226;28;20056;-72
2022/07/15 04:57:53;;;;;;;1.92;0.32;;;;;;;26.67;43.83;100348.16;5050096;28;20021;-72
2022/07/15 05:00:19;;;;;;;1.83;0.40;;;;;;;26.66;43.70;100349.22;5050063;28;20029;-72
2022/07/15 05:02:44;;;;;;;1.27;0.20;;;;;;;26.67;43.67;100340.16;5050325;28;20053;-72
2022/07/15 05:05:10;;;;;;;2.55;0.30;;;;;;;26.68;43.53;100360.47;5050508;28;20028;-72
2022/07/15 05:07:37;;;;;;;2.42;0.30;;;;;;;26.61;43.75;100354.53;5050242;28;20487;-72
2022/07/15 05:10:07;;;;;;;3.78;0.40;;;;;;;26.58;43.84;100354.22;5050030;28;20459;-71
2022/07/15 05:12:32;;;;;;;1.67;0.30;;;;;;;26.57;43.91;100341.91;5049937;28;20028;-73
2022/07/15 05:14:58;;;;;;;1.20;0.30;;;;;;;26.57;44.09;100356.06;5049865;28;20752;-72
2022/07/15 05:17:25;;;;;;;2.20;0.30;;;;;;;26.58;43.75;100349.69;5049693;28;20479;-73
2022/07/15 05:19:52;;;;;;;2.67;0.30;;;;;;;26.56;44.04;100351.78;5050372;28;20449;-72
2022/07/15 05:22:18;;;;;;;3.75;0.40;;;;;;;26.55;43.84;100344.84;5050249;28;20028;-72
2022/07/15 05:24:44;;;;;;;0.68;0.30;;;;;;;26.55;44.08;100346.69;5049260;28;20511;-72
2022/07/15 05:27:10;;;;;;;1.75;0.30;;;;;;;26.54;43.85;100345.91;5049922;28;20133;-72
2022/07/15 05:29:35;;;;;;;0.82;0.25;;;;;;;26.55;43.92;100352.03;5049817;28;20528;-72
2022/07/15 05:32:00;;;;;;;2.70;0.40;;;;;;;26.56;44.06;100350.97;5049478;28;20025;-73
2022/07/15 05:34:26;;;;;;;2.25;0.40;;;;;;;26.55;43.89;100350.19;5044910;28;20041;-71
2022/07/15 05:36:52;;;;;;;1.17;0.20;;;;;;;26.56;44.41;100356.34;5049463;28;20416;-72
2022/07/15 05:39:17;;;;;;;2.08;0.30;;;;;;;26.56;44.68;100357.13;5048901;28;20104;-72
2022/07/15 05:41:42;;;;;;;1.20;0.30;;;;;;;26.56;44.70;100357.13;5049231;28;20060;-72
2022/07/15 05:44:08;;;;;;;2.08;0.50;;;;;;;26.58;44.45;100363.03;5046900;28;20558;-72
2022/07/15 05:46:33;;;;;;;1.00;0.38;;;;;;;26.59;44.51;100361.97;5031189;28;20477;-72
2022/07/15 05:48:59;;;;;;;3.47;0.50;;;;;;;26.61;44.52;100359.84;5047843;28;20036;-72
2022/07/15 05:51:25;;;;;;;0.70;0.30;;;;;;;26.63;44.70;100365.75;5048907;28;20029;-72
2022/07/15 05:53:50;;;;;;;1.35;0.30;;;;;;;26.62;44.79;100360.66;5048325;28;20024;-71
2022/07/15 05:56:16;;;;;;;3.05;0.40;;;;;;;26.63;45.03;100363.09;5048764;28;20489;-72
2022/07/15 05:58:41;;;;;;;1.10;0.40;;;;;;;26.62;44.93;100361.47;5048145;28;20029;-73
2022/07/15 06:01:07;;;;;;;3.22;0.30;;;;;;;26.61;45.05;100365.22;5049143;28;20492;-72
2022/07/15 06:03:32;;;;;;;3.20;0.50;;;;;;;26.63;45.10;100363.09;5048741;28;20033;-70
2022/07/15 06:05:58;;;;;;;1.55;0.28;;;;;;;26.64;45.16;100367.38;5047891;28;20028;-72
2022/07/15 06:08:23;;;;;;;4.93;0.40;;;;;;;26.66;45.05;100370.59;5048531;28;20149;-72
2022/07/15 06:10:49;;;;;;;2.35;0.30;;;;;;;26.67;45.03;100361.53;5048627;28;20017;-71
2022/07/15 06:13:15;;;;;;;2.20;0.30;;;;;;;26.68;45.17;100362.34;5048647;28;20033;-72
2022/07/15 06:15:40;;;;;;;1.90;0.40;;;;;;;26.67;45.02;100356.19;5047598;28;20033;-71
2022/07/15 06:18:06;;;;;;;2.92;0.30;;;;;;;26.68;45.30;100357.78;5048619;28;20082;-72
2022/07/15 06:20:32;;;;;;;1.08;0.22;;;;;;;26.69;45.30;100364.75;5048919;28;20025;-72
2022/07/15 06:22:57;;;;;;;1.08;0.40;;;;;;;26.68;45.39;100360.47;5048805;28;20040;-71
2022/07/15 06:25:23;;;;;;;0.85;0.30;;;;;;;26.68;45.52;100360.47;5047379;28;20029;-71
2022/07/15 06:27:48;;;;;;;5.07;0.38;;;;;;;26.69;45.52;100364.75;5048377;28;20423;-72
2022/07/15 06:30:14;;;;;;;0.65;0.32;;;;;;;26.69;45.59;100359.41;5046720;28;20443;-72
2022/07/15 06:32:39;;;;;;;3.85;0.40;;;;;;;26.71;45.82;100359.97;5045868;28;20472;-72
2022/07/15 06:35:06;;;;;;;2.70;0.47;;;;;;;26.69;45.59;100370.09;5044442;28;20050;-72
2022/07/15 06:37:32;;;;;;;1.48;0.30;;;;;;;26.67;45.93;100366.88;5046391;28;20391;-72
2022/07/15 06:39:57;;;;;;;5.35;0.50;;;;;;;26.67;45.81;100372.22;5046440;28;20108;-72
2022/07/15 06:42:23;;;;;;;1.45;0.40;;;;;;;26.70;46.27;100370.91;5048314;28;20488;-71
2022/07/15 06:44:48;;;;;;;5.85;0.40;;;;;;;26.78;47.50;100376.59;5048798;28;20470;-72
2022/07/15 06:47:14;;;;;;;2.95;0.40;;;;;;;26.87;47.79;100381.50;5047029;28;20025;-72
2022/07/15 06:49:39;;;;;;;4.85;0.35;;;;;;;26.86;47.81;100387.91;5048428;28;20025;-72
2022/07/15 06:52:05;;;;;;;3.15;0.40;;;;;;;26.86;47.40;100378.00;5048021;28;20571;-73
2022/07/15 06:54:31;;;;;;;2.00;0.30;;;;;;;26.86;47.78;100371.84;5047711;28;20033;-72
2022/07/15 06:56:57;;;;;;;1.50;0.43;;;;;;;26.87;47.44;100378.81;5047536;28;20040;-73
2022/07/15 06:59:23;;;;;;;0.85;0.30;;;;;;;26.85;47.01;100375.59;5045944;28;20057;-72
2022/07/15 07:01:50;;;;;;;1.00;0.40;;;;;;;26.86;46.45;100383.34;5046961;28;20037;-72
2022/07/15 07:04:15;;;;;;;4.00;0.40;;;;;;;26.88;47.16;100381.25;5045309;28;20025;-72
2022/07/15 07:06:41;;;;;;;2.15;0.32;;;;;;;26.90;46.54;100386.34;5045723;28;20495;-72
2022/07/15 07:09:06;;;;;;;3.88;0.40;;;;;;;26.90;46.06;100376.44;5047954;28;20032;-72
2022/07/15 07:11:32;;;;;;;2.72;0.40;;;;;;;26.91;44.55;100385.28;5047967;28;20040;-72
2022/07/15 07:13:59;;;;;;;1.48;0.30;;;;;;;26.89;43.58;100382.84;5046096;28;20037;-72
2022/07/15 07:16:25;;;;;;;0.50;0.30;;;;;;;26.90;43.24;100379.13;5045409;28;20480;-72
2022/07/15 07:18:50;;;;;;;0.52;0.25;;;;;;;26.92;43.12;100381.53;5046414;28;20041;-72
2022/07/15 07:21:17;;;;;;;1.17;0.30;;;;;;;26.93;42.84;100378.63;5047158;28;20088;-72
2022/07/15 07:23:42;;;;;;;1.48;0.30;;;;;;;26.96;43.07;100377.31;5046567;28;20557;-72
2022/07/15 07:26:08;;;;;;;5.00;0.40;;;;;;;26.97;43.06;100378.91;5045394;28;20124;-72
2022/07/15 07:28:34;;;;;;;1.73;0.20;;;;;;;26.96;42.62;100370.09;5046776;28;20522;-72
2022/07/15 07:31:00;;;;;;;2.67;0.20;;;;;;;26.96;42.75;100372.75;5046840;28;20119;-72
2022/07/15 07:33:25;;;;;;;1.85;0.28;;;;;;;26.95;43.09;100364.97;5045291;28;20040;-72
2022/07/15 07:35:51;;;;;;;0.73;0.22;;;;;;;26.95;42.86;100364.97;5045027;28;20041;-72
2022/07/15 07:38:17;;;;;;;1.33;0.20;;;;;;;26.96;43.30;100366.59;5046009;28;20033;-71
2022/07/15 07:40:43;;;;;;;2.17;0.22;;;;;;;26.98;42.91;100364.47;5045162;28;20028;-72
2022/07/15 07:43:08;;;;;;;2.53;0.30;;;;;;;26.99;42.76;100363.41;5046347;28;20519;-72
2022/07/15 07:45:34;;;;;;;3.05;0.40;;;;;;;26.98;42.74;100365.28;5046143;28;20060;-72
2022/07/15 07:47:59;;;;;;;5.55;0.30;;;;;;;26.98;42.85;100370.63;5046397;28;20396;-72
2022/07/15 07:50:25;;;;;;;3.13;0.20;;;;;;;27.00;42.76;100367.72;5045619;28;20259;-72
2022/07/15 07:52:51;;;;;;;1.27;0.30;;;;;;;27.03;42.64;100368.00;5049461;28;20044;-72
2022/07/15 07:55:16;;;;;;;1.58;0.43;;;;;;;27.04;42.74;100374.97;5049165;28;20032;-72
2022/07/15 07:57:57;;;;;;;2.20;0.30;;;;;;;27.02;42.42;100376.28;5051329;28;20029;-72
2022/07/15 08:00:26;;;;;;;4.43;0.30;;;;;;;27.01;42.50;100375.47;5049506;28;20511;-72
2022/07/15 08:02:52;;;;;;;0.82;0.30;;;;;;;27.00;42.86;100373.88;5049553;28;20037;-72
2022/07/15 08:05:18;;;;;;;3.30;0.55;;;;;;;27.02;42.94;100370.94;5048557;28;20037;-71
2022/07/15 08:07:43;;;;;;;0.70;0.30;;;;;;;27.06;42.50;100366.69;5048920;28;20040;-72
2022/07/15 08:10:11;;;;;;;0.60;0.20;;;;;;;27.11;42.49;100364.06;5048570;28;20037;-72
2022/07/15 08:12:37;;;;;;;3.20;0.40;;;;;;;27.10;42.47;100360.59;5048191;28;20045;-72
2022/07/15 08:15:05;;;;;;;0.63;0.20;;;;;;;27.09;43.04;100368.84;5048350;28;20456;-72
2022/07/15 08:17:30;;;;;;;2.70;0.38;;;;;;;27.10;42.64;100370.47;5049515;28;20125;-72
2022/07/15 08:19:56;;;;;;;0.52;0.20;;;;;;;27.11;42.73;100369.41;5049770;28;20524;-72
2022/07/15 08:22:22;;;;;;;1.95;0.30;;;;;;;27.13;42.89;100361.94;5047930;28;20047;-71
2022/07/15 08:24:49;;;;;;;1.23;0.30;;;;;;;27.14;43.33;100357.41;5049839;28;20024;-72
2022/07/15 08:27:15;;;;;;;1.00;0.20;;;;;;;27.19;43.05;100360.91;5049640;28;20039;-72
2022/07/15 08:29:40;;;;;;;1.67;0.20;;;;;;;27.21;42.91;100366.81;5049861;28;20029;-72
2022/07/15 08:32:06;;;;;;;1.10;0.30;;;;;;;27.21;42.67;100366.81;5047085;28;20044;-71
2022/07/15 08:34:31;;;;;;;2.05;0.30;;;;;;;27.24;42.68;100366.31;5047831;28;20083;-72
2022/07/15 08:36:56;;;;;;;1.70;0.38;;;;;;;27.26;42.14;100366.06;5048359;28;20075;-72
2022/07/15 08:39:23;;;;;;;0.82;0.30;;;;;;;27.25;42.13;100367.91;5049229;28;20105;-72
2022/07/15 08:41:48;;;;;;;1.85;0.50;;;;;;;27.27;41.91;100365.78;5048872;28;20053;-72
2022/07/15 08:44:14;;;;;;;2.05;0.30;;;;;;;27.30;41.28;100359.13;5049379;28;20032;-72
2022/07/15 08:46:44;;;;;;;1.17;0.38;;;;;;;27.31;41.16;100364.22;5049173;28;20544;-72
2022/07/15 08:49:15;;;;;;;2.63;0.30;;;;;;;27.33;41.26;100370.13;5049104;28;20029;-73
2022/07/15 08:51:45;;;;;;;0.68;0.30;;;;;;;27.37;41.06;100370.41;5048903;28;20382;-72
2022/07/15 08:54:12;;;;;;;2.42;0.30;;;;;;;27.39;41.30;100365.63;5047680;28;20400;-72
2022/07/15 08:56:38;;;;;;;2.05;0.30;;;;;;;27.37;41.13;100362.38;5049855;28;20037;-72
2022/07/15 08:59:04;;;;;;;0.43;0.28;;;;;;;27.37;41.03;100363.19;5049096;28;20158;-72
2022/07/15 09:01:32;;;;;;;2.13;0.50;;;;;;;27.35;40.68;100359.16;5047946;28;20040;-72
2022/07/15 09:03:58;;;;;;;1.05;0.30;;;;;;;27.36;40.32;100360.78;5048584;28;20021;-72
2022/07/15 09:06:38;;;;;;;2.20;0.30;;;;;;;27.36;39.50;100366.94;5048959;28;20045;-72
2022/07/15 09:09:29;;;;;;;3.80;0.30;;;;;;;27.37;39.24;100362.38;5049504;28;20028;-72
2022/07/15 09:11:57;;;;;;;1.88;0.30;;;;;;;27.40;39.42;100368.03;5047787;28;20135;-72
2022/07/15 09:14:26;;;;;;;4.18;0.50;;;;;;;27.49;39.28;100368.31;5051834;28;20096;-72
2022/07/15 09:17:04;;;;;;;2.53;0.30;;;;;;;27.47;39.29;100362.44;5050939;28;20043;-73
2022/07/15 09:19:49;;;;;;;1.00;0.30;;;;;;;27.51;39.38;100358.19;5051226;28;20037;-72
2022/07/15 09:22:15;;;;;;;3.20;0.20;;;;;;;27.53;39.42;100357.91;5051666;28;20431;-72
2022/07/15 09:24:43;;;;;;;3.63;0.47;;;;;;;27.57;39.45;100362.50;5048843;28;20029;-72
2022/07/15 09:27:31;;;;;;;1.70;0.30;;;;;;;27.61;39.02;100360.13;5051451;28;20029;-73
2022/07/15 09:36:01;;;;;;;1.73;0.30;;;;;;;27.53;39.71;100361.41;5045600;28;20052;-72
2022/07/15 09:38:40;;;;;;;1.05;0.30;;;;;;;27.54;39.43;100356.84;5048569;28;20094;-72
2022/07/15 09:41:32;;;;;;;4.40;0.30;;;;;;;27.58;39.46;100364.09;5045387;28;20060;-72
2022/07/15 09:44:05;;;;;;;2.47;0.30;;;;;;;27.61;39.52;100350.25;5009162;28;20052;-72
2022/07/15 09:46:51;;;;;;;1.77;0.40;;;;;;;27.64;39.47;100346.25;5047775;28;20033;-72
2022/07/15 09:49:22;;;;;;;0.80;0.30;;;;;;;27.67;39.90;100351.06;5048021;28;20048;-72
2022/07/15 09:51:49;;;;;;;1.50;0.40;;;;;;;27.66;39.97;100344.91;5047423;28;20040;-73
2022/07/15 09:54:15;;;;;;;0.77;0.30;;;;;;;27.68;39.75;100344.66;5047078;28;20034;-73
2022/07/15 09:56:41;;;;;;;2.90;0.30;;;;;;;27.68;39.83;100347.34;5032939;28;20397;-72
2022/07/15 09:59:08;;;;;;;1.60;0.40;;;;;;;27.70;39.76;100345.19;5039096;28;20040;-72
2022/07/15 10:01:34;;;;;;;3.97;0.40;;;;;;;27.76;39.84;100352.19;5049111;28;20025;-72
2022/07/15 10:04:00;;;;;;;1.73;0.30;;;;;;;27.81;39.48;100354.91;5047705;28;20056;-72
2022/07/15 10:06:27;;;;;;;1.92;0.50;;;;;;;27.79;39.70;100350.88;5028662;28;20029;-72
2022/07/15 10:08:54;;;;;;;1.73;0.30;;;;;;;27.79;39.70;100354.34;5047268;28;20024;-73
2022/07/15 10:11:20;;;;;;;1.52;0.40;;;;;;;27.80;39.89;100350.59;5046601;28;20045;-72
2022/07/15 10:14:11;;;;;;;5.00;0.40;;;;;;;27.85;40.03;100347.16;5046052;28;20036;-73
2022/07/15 10:16:58;;;;;;;1.80;0.50;;;;;;;27.88;39.57;100344.75;5049139;28;20100;-73
2022/07/15 10:19:40;;;;;;;2.80;0.43;;;;;;;27.89;39.55;100341.00;5046717;28;20044;-74
2022/07/15 10:22:22;;;;;;;2.55;0.30;;;;;;;27.85;39.54;100342.59;5045385;28;20068;-72
2022/07/15 10:25:09;;;;;;;0.52;0.35;;;;;;;27.91;39.62;100336.19;5047636;28;20064;-73
2022/07/15 10:27:46;;;;;;;3.80;0.50;;;;;;;27.95;39.55;100341.81;5047577;28;20032;-74
2022/07/15 10:30:11;;;;;;;2.25;0.47;;;;;;;28.04;39.09;100335.69;5029681;28;20048;-73
2022/07/15 10:33:25;;;;;;;1.35;0.40;;;;;;;28.02;39.10;100345.06;5045851;28;20044;-73
2022/07/15 10:36:03;;;;;;;3.35;0.40;;;;;;;27.90;39.51;100339.91;5022728;28;20052;-73
2022/07/15 10:38:29;;;;;;;1.17;0.47;;;;;;;27.90;39.50;100337.25;5047051;28;20123;-73
2022/07/15 10:41:21;;;;;;;0.95;0.30;;;;;;;27.88;39.76;100331.38;5046844;28;20100;-73
2022/07/15 10:43:54;;;;;;;2.50;0.40;;;;;;;27.86;39.93;100325.47;5044911;28;20059;-73
2022/07/15 10:46:29;;;;;;;2.25;0.47;;;;;;;27.86;39.90;100332.69;5047844;28;20029;-73
2022/07/15 10:49:00;;;;;;;1.80;0.50;;;;;;;27.94;39.32;100327.63;5047404;28;20048;-73
2022/07/15 10:51:35;;;;;;;0.80;0.40;;;;;;;27.99;39.33;100327.66;5045782;28;20400;-73
2022/07/15 10:54:21;;;;;;;1.63;0.40;;;;;;;27.99;39.22;100329.53;5045346;28;20071;-73
2022/07/15 10:56:51;;;;;;;1.55;0.40;;;;;;;27.99;39.18;100322.28;5030466;28;20458;-73
2022/07/15 10:59:23;;;;;;;4.57;0.60;;;;;;;28.12;39.18;100312.16;5046839;28;20570;-72
2022/07/15 11:02:00;;;;;;;2.90;0.50;;;;;;;28.20;38.53;100317.00;5046641;28;20549;-73
2022/07/15 11:04:28;;;;;;;2.08;0.50;;;;;;;28.22;38.97;100317.56;5046943;28;20079;-72
2022/07/15 11:07:07;;;;;;;1.50;0.40;;;;;;;28.16;38.73;100313.25;5045776;28;20029;-73
2022/07/15 11:09:55;;;;;;;1.27;0.50;;;;;;;28.16;38.93;100307.88;5047109;28;20378;-73
2022/07/15 11:12:30;;;;;;;3.85;0.43;;;;;;;28.18;39.32;100314.59;5046659;28;20029;-73
2022/07/15 11:15:04;;;;;;;1.67;0.63;;;;;;;28.25;39.36;100309.81;5046543;28;20580;-73
2022/07/15 11:17:29;;;;;;;1.38;0.50;;;;;;;28.26;39.19;100306.06;5043147;28;20029;-73
2022/07/15 11:19:57;;;;;;;2.55;0.50;;;;;;;28.29;39.21;100310.09;5047877;28;20029;-73
2022/07/15 11:22:25;;;;;;;1.83;0.40;;;;;;;28.27;39.60;100296.97;5045512;28;20029;-73
2022/07/15 11:24:52;;;;;;;2.20;0.60;;;;;;;28.32;39.13;100299.66;5049358;28;20029;-73
2022/07/15 11:27:19;;;;;;;2.17;0.63;;;;;;;28.30;39.21;100304.47;5047930;28;20025;-73
2022/07/15 11:29:54;;;;;;;2.60;0.40;;;;;;;28.32;39.34;100301.53;5049794;28;20055;-73
2022/07/15 11:32:21;;;;;;;2.17;0.40;;;;;;;28.36;39.51;100299.91;5051784;28;20033;-73